Main page
METAR-TAF:

METAR-TAF

Airports :

Turku Airport

Turku, Finland

latitude: 60-31N, longitude: 022-16E, elevation: 49 m

Current weather observation

The report was made 11 minutes ago, at 22:20 UTC
Wind 19 kt from the Southwest, varying between South and West/Southwest
Temperature 5°C
Humidity 81%
Pressure 985 hPa
Visibility 10 km or more
Overcast at a height of 1800 ft

METAR: EFTU 172220Z AUTO 23019KT 190V250 9999 OVC018 05/02 Q0985

Time: 00:31 (22:31 UTC)

Forecast

The report was made 2 hours and 5 minutes ago, at 20:26 UTC
Forecast valid from 17 at 21 UTC to 18 at 21 UTC
Wind 20 kt from the Southwest with gusts up to 33 kt
Visibility 10 km or more
Broken clouds at a height of 2000 ft
Temporary
from 17 at 21 UTC to 18 at 03 UTC
Scattered clouds at a height of 2500 ft, Cumulonimbus.
Broken clouds at a height of 3000 ft
Becoming
from 18 at 03 UTC to 18 at 05 UTC
Wind 12 kt from the West/Southwest

TAF: EFTU 172026Z 1721/1821 23020G33KT 9999 BKN020 TEMPO 1721/1803 SCT025CB BKN030 BECMG 1803/1805 24012KT

Weather observations and forecasts of more than 4000 airports (METAR and TAF reports).

The available stations are represented by yellow and red dots on the map.

Hover mouse over dot to see the name of the station.

Then click to see weather observations and forecasts.

To change the map : click on the green buttons with a black cross to zoom in, on the green button with a dash to zoom out, or on the green arrows for adjacent maps.


METAR-TAF: